METAR AND TAF INFORMATION
METAR FOR SBJU
ADDS - METARS form results

(0947 UTC 26 August 2019)
Data provider http://aviationweather.gov/metar/data/
 
METAR text: SBJU 260900Z 14012KT 9999 SCT020 22/16 Q1021
Conditions at: SBJU (JUAZEIRO D NORTE, BR) observed 0900 UTC 26 August 2019
Temperature: 22.0°C (72°F)
Dewpoint: 16.0°C (61°F) [RH = 69%]
Pressure (altimeter): 30.15 inches Hg (1021.0 mb)
Winds: from the SE (140 degrees) at 14 MPH (12 knots; 6.2 m/s)
Visibility: 6 or more miles (10+ km)
Ceiling: at least 12,000 feet AGL
Clouds: scattered clouds at 2000 feet AGL
Weather: no significant weather observed at this time

 AIRPORT MAP

 RUNWAY INFORMATION
Runway 13 Runway length 5906 ft Runway width 148 ft
Runway elevation 0 ft Runway displaced threshold 0 ft Runway heading 0
Runway 31 Runway length 5906 ft Runway width 148 ft
Runway elevation 0 ft Runway displaced threshold 0 ft Runway heading 0

 AIRPORT FREQUENCIES
Type AFIS Name JUAZEIRO R Frequency 131.75 MHZ

 AIRPORT NEAR NAVIGATION AIDS
Type NDB Name Juazeiro Frequency 205 KHZ



Powered by Virtual Airlines Manager [v2.6.2]